Overview Statistics Trail Chart Weather Telemetry Raw packets
 

This is the latest recevied weather packets stored in our database for station/object YD2CLX-11. If no packets are shown the sender has not sent any weather packets the latest 10 day(s).

<< 33 34 35 36 37 38 39 >>
Time Temp. Humidity Pressure Rain* Wind** Luminosity Snow
1788090563 28.89° C 69% 998.6 hPa - - - -
1788089962 28.33° C 72% 998.4 hPa - - - -
1788089360 28.89° C 69% 998.2 hPa - - - -
1788088759 29.44° C 69% 998 hPa - - - -
1788088158 29.44° C 68% 997.9 hPa - - - -
1788087558 30° C 67% 997.7 hPa - - - -
1788086957 30.56° C 66% 997.4 hPa - - - -
1788086356 31.11° C 62% 997.2 hPa - - - -
1788085755 31.67° C 60% 997 hPa - - - -
1788085154 32.22° C 58% 996.9 hPa - - - -
1788084553 32.78° C 57% 996.8 hPa - - - -
1788083952 33.33° C 54% 996.7 hPa - - - -
1788083351 33.33° C 51% 996.6 hPa - - - -
1788082750 33.89° C 49% 996.4 hPa - - - -
1788082149 33.89° C 48% 996.4 hPa - - - -
1788081547 35° C 47% 996.3 hPa - - - -
1788080945 35° C 46% 996.2 hPa - - - -
1788080343 34.44° C 46% 996.2 hPa - - - -
1788079742 34.44° C 46% 996.1 hPa - - - -
1788079141 34.44° C 47% 996.2 hPa - - - -
1788078540 34.44° C 46% 996.1 hPa - - - -
1788077939 35° C 45% 995.9 hPa - - - -
1788077338 36.11° C 44% 995.9 hPa - - - -
1788076737 36.11° C 43% 995.9 hPa - - - -
1788076136 36.11° C 43% 995.8 hPa - - - -

* Rain since midnight (hover to see other rain measurements)
** Current wind speed in m/s (hover to see current wind gust speed)